Time;durP1;ratioP1;P1;durP2;ratioP2;P2;SDS_P1;SDS_P2;PMS_P1;PMS_P2;Temp;Humidity;BMP_temperature;BMP_pressure;BME280_temperature;BME280_humidity;BME280_pressure;Samples;Min_cycle;Max_cycle;Signal;HPM_P1;HPM_P2
2023/01/08 00:01:49;;;;;;;371.67;206.40;;;1.60;1.00;;;;;;4991564;28;20042;-79
2023/01/08 00:04:21;;;;;;;334.38;186.65;;;1.60;99.90;;;;;;4975775;28;20053;-78
2023/01/08 00:06:49;;;;;;;333.30;186.15;;;1.60;1.00;;;;;;4973774;28;20464;-78
2023/01/08 00:09:16;;;;;;;383.15;215.38;;;1.60;99.90;;;;;;4971730;28;20098;-79
2023/01/08 00:11:44;;;;;;;374.92;206.32;;;1.60;1.00;;;;;;4972289;28;20050;-76
2023/01/08 00:14:11;;;;;;;350.63;194.18;;;1.60;1.00;;;;;;4972695;28;20038;-79
2023/01/08 00:16:39;;;;;;;322.27;177.55;;;1.50;99.90;;;;;;4972511;28;20049;-76
2023/01/08 00:19:06;;;;;;;300.40;163.60;;;1.50;1.00;;;;;;4972248;28;20038;-78
2023/01/08 00:21:35;;;;;;;283.70;157.55;;;1.50;1.00;;;;;;4972657;28;20388;-78
2023/01/08 00:24:03;;;;;;;290.02;163.15;;;1.50;1.00;;;;;;4978575;28;20058;-75
2023/01/08 00:26:31;;;;;;;295.00;163.32;;;1.60;1.00;;;;;;4986160;28;20053;-79
2023/01/08 00:28:58;;;;;;;304.50;169.15;;;1.50;1.00;;;;;;4970445;28;20070;-76
2023/01/08 00:31:28;;;;;;;315.83;178.90;;;1.50;1.00;;;;;;4974166;28;20109;-77
2023/01/08 00:33:55;;;;;;;326.65;180.23;;;1.50;1.00;;;;;;4955934;28;20051;-75
2023/01/08 00:36:22;;;;;;;310.70;170.02;;;1.40;99.90;;;;;;4988779;28;20047;-73
2023/01/08 00:38:51;;;;;;;303.55;170.70;;;1.40;1.00;;;;;;4963319;28;20054;-78
2023/01/08 00:41:19;;;;;;;292.15;165.40;;;1.40;1.00;;;;;;4972031;28;20043;-79
2023/01/08 00:43:46;;;;;;;318.17;173.52;;;1.40;1.00;;;;;;4972314;28;20050;-77
2023/01/08 00:46:14;;;;;;;305.45;170.52;;;1.40;99.90;;;;;;4982403;28;20042;-78
2023/01/08 00:48:41;;;;;;;301.02;168.35;;;1.40;99.90;;;;;;4989884;28;20046;-77
2023/01/08 00:51:09;;;;;;;310.65;176.45;;;1.40;99.90;;;;;;4994961;28;20042;-77
2023/01/08 00:53:37;;;;;;;329.58;182.60;;;1.40;1.00;;;;;;4989489;28;20046;-79
2023/01/08 00:56:10;;;;;;;322.23;180.90;;;1.30;1.00;;;;;;4990237;28;20035;-77
2023/01/08 00:58:37;;;;;;;333.13;192.15;;;1.30;1.00;;;;;;4991524;28;20023;-77
2023/01/08 01:01:10;;;;;;;333.80;191.95;;;1.30;1.00;;;;;;4987173;28;20047;-75
2023/01/08 01:03:37;;;;;;;309.27;172.98;;;1.20;99.90;;;;;;4987433;28;20031;-76
2023/01/08 01:06:06;;;;;;;313.48;173.75;;;1.30;1.00;;;;;;4993079;28;20043;-77
2023/01/08 01:08:34;;;;;;;249.20;145.05;;;1.30;99.90;;;;;;4989287;28;20039;-75
2023/01/08 01:11:07;;;;;;;275.33;148.45;;;1.30;1.00;;;;;;4993318;28;20069;-78
2023/01/08 01:13:35;;;;;;;255.07;140.65;;;1.30;1.00;;;;;;4978566;28;20042;-78
2023/01/08 01:16:03;;;;;;;256.85;145.65;;;1.30;1.00;;;;;;4973567;28;20049;-75
2023/01/08 01:18:31;;;;;;;274.20;149.85;;;1.30;1.00;;;;;;4989409;28;20090;-75
2023/01/08 01:20:59;;;;;;;289.48;159.07;;;1.30;1.00;;;;;;4985550;28;20130;-78
2023/01/08 01:23:26;;;;;;;286.73;159.35;;;1.20;1.00;;;;;;4970546;28;20055;-76
2023/01/08 01:25:54;;;;;;;328.33;186.25;;;1.20;44.20;;;;;;4972023;28;20388;-77
2023/01/08 01:28:23;;;;;;;299.77;167.02;;;1.20;1.00;;;;;;4970355;28;20038;-77
2023/01/08 01:30:55;;;;;;;294.80;166.20;;;1.10;99.90;;;;;;4971043;28;20043;-75
2023/01/08 01:33:22;;;;;;;278.73;160.07;;;1.10;1.00;;;;;;4971830;28;20042;-77
2023/01/08 01:35:58;;;;;;;287.48;161.27;;;1.20;1.00;;;;;;4970901;28;20042;-77
2023/01/08 01:38:27;;;;;;;285.23;164.25;;;1.10;99.90;;;;;;4971809;28;20079;-79
2023/01/08 01:40:55;;;;;;;289.95;173.40;;;1.10;1.00;;;;;;4971457;28;20046;-79
2023/01/08 01:43:36;;;;;;;291.42;171.65;;;1.00;1.00;;;;;;4971633;28;20054;-77
2023/01/08 01:46:05;;;;;;;296.20;172.10;;;1.00;1.00;;;;;;4954153;28;20047;-78
2023/01/08 01:48:32;;;;;;;297.30;179.15;;;1.00;99.90;;;;;;4970124;28;20051;-77
2023/01/08 01:50:59;;;;;;;297.10;176.70;;;1.10;65.30;;;;;;4979948;28;20042;-76
2023/01/08 01:53:30;;;;;;;296.23;177.30;;;1.00;99.90;;;;;;4992484;28;20037;-76
2023/01/08 01:55:58;;;;;;;315.17;189.07;;;1.00;1.00;;;;;;4997493;28;20086;-77
2023/01/08 01:58:28;;;;;;;314.52;191.52;;;1.00;99.90;;;;;;4984811;28;20047;-76
2023/01/08 02:01:01;;;;;;;307.67;188.40;;;1.00;1.00;;;;;;4976921;28;20058;-76
2023/01/08 02:03:38;;;;;;;309.73;180.63;;;1.00;1.00;;;;;;4984338;28;20023;-78
2023/01/08 02:06:20;;;;;;;313.58;178.15;;;1.00;5.40;;;;;;4991695;28;20061;-76
2023/01/08 02:08:56;;;;;;;324.67;186.55;;;1.00;1.00;;;;;;4985653;28;20135;-72
2023/01/08 02:11:31;;;;;;;309.33;177.05;;;1.00;1.00;;;;;;4975159;28;20050;-79
2023/01/08 02:14:06;;;;;;;421.45;221.35;;;1.00;1.00;;;;;;4973587;28;20043;-78
2023/01/08 02:16:42;;;;;;;316.20;175.65;;;1.00;1.00;;;;;;4973435;28;20063;-78
2023/01/08 02:19:22;;;;;;;268.90;154.60;;;1.00;99.90;;;;;;4974088;28;20057;-76
2023/01/08 02:22:02;;;;;;;277.35;156.55;;;1.10;99.90;;;;;;4973668;28;20042;-77
2023/01/08 02:24:41;;;;;;;260.05;148.27;;;1.10;99.90;;;;;;4974118;28;20043;-77
2023/01/08 02:27:11;;;;;;;262.90;141.90;;;1.00;99.90;;;;;;4973519;28;20501;-76
2023/01/08 02:29:40;;;;;;;271.40;135.50;;;1.10;99.90;;;;;;4973577;28;20062;-79
2023/01/08 02:32:08;;;;;;;240.48;125.93;;;1.10;99.90;;;;;;4956451;28;20035;-76
2023/01/08 02:34:36;;;;;;;286.90;132.93;;;1.10;99.90;;;;;;4974186;28;20117;-77
2023/01/08 02:37:03;;;;;;;239.40;133.38;;;1.10;99.90;;;;;;4970741;28;20039;-77
2023/01/08 02:39:58;;;;;;;272.20;152.20;;;1.00;99.90;;;;;;4954604;28;20039;-77
2023/01/08 02:42:37;;;;;;;268.33;152.20;;;1.00;99.90;;;;;;4969597;28;20505;-78
2023/01/08 02:45:11;;;;;;;289.67;150.68;;;1.00;99.90;;;;;;4964177;28;20197;-79
2023/01/08 02:47:42;;;;;;;267.75;148.60;;;1.00;99.90;;;;;;4971911;28;20395;-78
2023/01/08 02:50:19;;;;;;;240.85;138.73;;;1.00;99.90;;;;;;4973372;28;20520;-77
2023/01/08 02:52:56;;;;;;;265.08;151.68;;;0.90;99.90;;;;;;4972596;28;20540;-78
2023/01/08 02:55:26;;;;;;;241.43;139.88;;;0.90;99.90;;;;;;4973292;28;20042;-76
2023/01/08 02:57:57;;;;;;;205.57;122.78;;;0.90;99.90;;;;;;4974860;28;20049;-77
2023/01/08 03:00:25;;;;;;;198.50;118.28;;;0.90;99.90;;;;;;4973786;28;20047;-78
2023/01/08 03:02:59;;;;;;;203.32;119.05;;;0.90;99.90;;;;;;4973198;28;20070;-77
2023/01/08 03:05:28;;;;;;;229.20;124.78;;;0.90;99.90;;;;;;4971397;28;20042;-77
2023/01/08 03:07:56;;;;;;;230.63;128.25;;;0.90;99.90;;;;;;4971332;28;20043;-78
2023/01/08 03:10:26;;;;;;;238.60;132.20;;;0.90;99.90;;;;;;4972585;28;20042;-77
2023/01/08 03:12:59;;;;;;;232.55;122.25;;;0.90;99.90;;;;;;4972487;28;20039;-76
2023/01/08 03:15:31;;;;;;;292.02;130.80;;;0.90;99.90;;;;;;4972641;28;20049;-78
2023/01/08 03:18:04;;;;;;;220.57;107.90;;;0.80;99.90;;;;;;4976003;28;20122;-77
2023/01/08 03:20:33;;;;;;;211.80;119.32;;;0.90;99.90;;;;;;4995715;28;20077;-79
2023/01/08 03:23:06;;;;;;;220.77;125.22;;;0.90;99.90;;;;;;4996361;28;20039;-78
2023/01/08 03:25:35;;;;;;;226.82;131.05;;;0.90;99.90;;;;;;4973652;28;20042;-79
2023/01/08 03:28:07;;;;;;;225.63;126.97;;;0.90;99.90;;;;;;4971947;28;20077;-78
2023/01/08 03:30:36;;;;;;;223.00;121.93;;;0.90;99.90;;;;;;4972060;28;20058;-77
2023/01/08 03:33:06;;;;;;;201.77;114.97;;;0.90;99.90;;;;;;4972350;28;20117;-78
2023/01/08 03:35:37;;;;;;;188.30;107.28;;;0.90;99.90;;;;;;4981194;28;20115;-78
2023/01/08 03:38:11;;;;;;;223.50;111.85;;;0.90;99.90;;;;;;4986599;28;20046;-74
2023/01/08 03:40:44;;;;;;;224.35;115.63;;;0.90;99.90;;;;;;4988122;28;20046;-76
2023/01/08 03:43:13;;;;;;;205.88;111.53;;;0.80;99.90;;;;;;4981757;28;20098;-77
2023/01/08 03:45:48;;;;;;;194.68;110.55;;;0.80;99.90;;;;;;4956223;28;20054;-78
2023/01/08 03:48:17;;;;;;;203.93;110.93;;;0.80;99.90;;;;;;4970816;28;20240;-79
2023/01/08 03:50:44;;;;;;;189.75;107.18;;;0.70;99.90;;;;;;4973180;28;20292;-77
2023/01/08 03:53:12;;;;;;;207.68;112.03;;;0.70;99.90;;;;;;4976542;28;20053;-76
2023/01/08 03:55:39;;;;;;;189.32;107.53;;;0.70;99.90;;;;;;4989602;28;20078;-76
2023/01/08 03:58:07;;;;;;;186.90;107.50;;;0.70;99.90;;;;;;4983130;28;20113;-77
2023/01/08 04:00:35;;;;;;;193.82;106.63;;;0.70;99.90;;;;;;4976747;28;20038;-77
2023/01/08 04:03:03;;;;;;;202.13;112.75;;;0.70;99.90;;;;;;4972355;28;20042;-79
2023/01/08 04:05:30;;;;;;;190.48;109.68;;;0.70;99.90;;;;;;4945923;28;20043;-78
2023/01/08 04:07:58;;;;;;;195.05;110.93;;;0.60;99.90;;;;;;4970935;28;20030;-79
2023/01/08 04:10:26;;;;;;;207.13;116.10;;;0.60;99.90;;;;;;4972698;28;20043;-76
2023/01/08 04:12:54;;;;;;;205.30;118.80;;;0.50;99.90;;;;;;4971956;28;20047;-77
2023/01/08 04:15:21;;;;;;;200.05;117.75;;;0.50;99.90;;;;;;4971518;28;20093;-78
2023/01/08 04:17:50;;;;;;;195.10;118.63;;;0.50;99.90;;;;;;4970190;28;20133;-79
2023/01/08 04:20:18;;;;;;;210.02;120.10;;;0.50;99.90;;;;;;4971501;28;20046;-78
2023/01/08 04:22:45;;;;;;;205.15;116.90;;;0.50;99.90;;;;;;4970975;28;20119;-77
2023/01/08 04:25:12;;;;;;;180.38;115.00;;;0.60;99.90;;;;;;4971699;28;20038;-78
2023/01/08 04:27:40;;;;;;;182.43;115.55;;;0.60;99.90;;;;;;4974492;28;20038;-77
2023/01/08 04:30:09;;;;;;;192.40;115.53;;;0.60;99.90;;;;;;4985893;28;20114;-77
2023/01/08 04:32:36;;;;;;;200.32;119.03;;;0.60;99.90;;;;;;4988871;28;20129;-77
2023/01/08 04:35:06;;;;;;;196.85;119.80;;;0.50;99.90;;;;;;4972089;28;20042;-78
2023/01/08 04:37:33;;;;;;;198.98;116.72;;;0.50;99.90;;;;;;4971981;28;20047;-79
2023/01/08 04:40:01;;;;;;;199.18;116.38;;;0.50;99.90;;;;;;4971703;28;20035;-76
2023/01/08 04:42:28;;;;;;;205.55;116.85;;;0.50;99.90;;;;;;4971850;28;20528;-79
2023/01/08 04:44:55;;;;;;;192.95;112.57;;;0.50;99.90;;;;;;4970810;28;20038;-79
2023/01/08 04:47:23;;;;;;;177.95;105.90;;;0.50;99.90;;;;;;4970384;28;20691;-77
2023/01/08 04:49:50;;;;;;;191.65;110.72;;;0.50;99.90;;;;;;4970768;28;20039;-77
2023/01/08 04:52:19;;;;;;;207.38;117.60;;;0.50;99.90;;;;;;4970663;28;20510;-77
2023/01/08 04:54:47;;;;;;;214.15;122.95;;;0.50;99.90;;;;;;4970426;28;20075;-76
2023/01/08 04:57:14;;;;;;;209.23;126.30;;;0.50;99.90;;;;;;4970649;28;20042;-75
2023/01/08 04:59:42;;;;;;;229.95;133.55;;;0.40;99.90;;;;;;4969687;28;20053;-78
2023/01/08 05:02:09;;;;;;;219.38;127.80;;;0.50;99.90;;;;;;4952765;28;20399;-79
2023/01/08 05:04:37;;;;;;;229.45;133.65;;;0.40;99.90;;;;;;4971083;28;20077;-78
2023/01/08 05:07:06;;;;;;;208.27;126.40;;;0.40;99.90;;;;;;4971188;28;20038;-79
2023/01/08 05:09:35;;;;;;;204.85;126.82;;;0.30;99.90;;;;;;4985207;28;20082;-76
2023/01/08 05:12:03;;;;;;;220.15;128.85;;;0.30;99.90;;;;;;4973953;28;20047;-78
2023/01/08 05:14:30;;;;;;;211.82;123.00;;;0.30;99.90;;;;;;4971832;28;20047;-77
2023/01/08 05:16:57;;;;;;;190.48;117.45;;;0.30;99.90;;;;;;4971681;28;20506;-76
2023/01/08 05:19:25;;;;;;;192.07;116.13;;;0.20;99.90;;;;;;4969859;28;20414;-79
2023/01/08 05:21:52;;;;;;;181.10;111.40;;;0.20;99.90;;;;;;4969165;28;20070;-78
2023/01/08 05:24:20;;;;;;;191.07;112.88;;;0.30;99.90;;;;;;4970846;28;20050;-78
2023/01/08 05:26:48;;;;;;;192.63;109.18;;;0.30;99.90;;;;;;4961609;28;20043;-79
2023/01/08 05:29:16;;;;;;;182.60;110.40;;;0.30;99.90;;;;;;4970247;28;20051;-78
2023/01/08 05:31:45;;;;;;;197.65;117.10;;;0.40;99.90;;;;;;4973931;28;20042;-78
2023/01/08 05:34:12;;;;;;;180.32;110.70;;;0.30;99.90;;;;;;4971890;28;20039;-77
2023/01/08 05:36:40;;;;;;;185.40;111.63;;;0.30;99.90;;;;;;4988362;28;20057;-77
2023/01/08 05:39:07;;;;;;;196.07;105.00;;;0.40;99.90;;;;;;4995615;28;20063;-77
2023/01/08 05:41:35;;;;;;;229.80;117.03;;;0.40;99.90;;;;;;4994571;28;20038;-76
2023/01/08 05:44:04;;;;;;;262.90;121.72;;;0.30;99.90;;;;;;4981190;28;20042;-77
2023/01/08 05:46:32;;;;;;;206.68;112.07;;;0.20;99.90;;;;;;4973613;28;20046;-79
2023/01/08 05:48:59;;;;;;;182.07;107.63;;;0.20;99.90;;;;;;4974782;28;20566;-80
2023/01/08 05:51:32;;;;;;;178.20;106.22;;;0.20;99.90;;;;;;4974642;28;20042;-77
2023/01/08 05:54:01;;;;;;;185.82;110.45;;;0.30;99.90;;;;;;4958254;28;20050;-77
2023/01/08 05:56:28;;;;;;;169.43;103.80;;;0.30;99.90;;;;;;4973989;28;20039;-79
2023/01/08 05:58:56;;;;;;;179.60;106.90;;;0.30;99.90;;;;;;4975017;28;20042;-78
2023/01/08 06:01:24;;;;;;;185.20;106.47;;;0.30;99.90;;;;;;4975123;28;20054;-77
2023/01/08 06:03:55;;;;;;;177.65;104.40;;;0.30;99.90;;;;;;4970140;28;20054;-75
2023/01/08 06:06:22;;;;;;;183.35;104.68;;;0.30;99.90;;;;;;4982724;28;20492;-75
2023/01/08 06:08:50;;;;;;;178.18;100.90;;;0.30;99.90;;;;;;4984275;28;20054;-76
2023/01/08 06:11:19;;;;;;;176.90;96.70;;;0.40;99.90;;;;;;4981573;28;20398;-77
2023/01/08 06:13:47;;;;;;;164.05;92.40;;;0.40;99.90;;;;;;4980947;28;20053;-80
2023/01/08 06:16:16;;;;;;;177.43;97.90;;;0.40;99.90;;;;;;4975814;28;20414;-77
2023/01/08 06:18:46;;;;;;;201.10;102.85;;;0.40;99.90;;;;;;4975797;28;20058;-78
2023/01/08 06:21:13;;;;;;;245.32;133.48;;;0.40;99.90;;;;;;4978275;28;20043;-74
2023/01/08 06:23:41;;;;;;;215.95;115.68;;;0.30;99.90;;;;;;4984996;28;20047;-78
2023/01/08 06:26:08;;;;;;;211.88;117.00;;;0.30;99.90;;;;;;4975327;28;20046;-78
2023/01/08 06:28:36;;;;;;;208.60;111.47;;;0.30;99.90;;;;;;4973833;28;20047;-77
2023/01/08 06:31:04;;;;;;;205.57;111.72;;;0.30;99.90;;;;;;4978857;28;20070;-77
2023/01/08 06:33:32;;;;;;;201.68;112.68;;;0.30;99.90;;;;;;4989340;28;20077;-75
2023/01/08 06:36:03;;;;;;;206.02;111.53;;;0.30;99.90;;;;;;4984300;28;20039;-75
2023/01/08 06:38:32;;;;;;;187.38;109.55;;;0.30;99.90;;;;;;4992306;28;20050;-75
2023/01/08 06:41:02;;;;;;;186.57;106.75;;;0.40;99.90;;;;;;4992002;28;20046;-74
2023/01/08 06:43:30;;;;;;;175.52;99.80;;;0.40;99.90;;;;;;4981673;28;20066;-77
2023/01/08 06:45:57;;;;;;;184.50;102.45;;;0.50;99.90;;;;;;4986708;28;20046;-77
2023/01/08 06:48:25;;;;;;;192.80;107.45;;;0.40;99.90;;;;;;4990351;28;20039;-77
2023/01/08 06:50:53;;;;;;;193.15;106.72;;;0.40;99.90;;;;;;4991578;28;20058;-76
2023/01/08 06:53:22;;;;;;;194.43;105.32;;;0.40;99.90;;;;;;4988103;28;20062;-77
2023/01/08 06:55:55;;;;;;;205.35;112.32;;;0.50;99.90;;;;;;4975717;28;20043;-77
2023/01/08 06:58:22;;;;;;;202.90;111.85;;;0.60;99.90;;;;;;4985081;28;20062;-74
2023/01/08 07:00:50;;;;;;;208.27;112.53;;;0.60;99.90;;;;;;4982410;28;20118;-75
2023/01/08 07:03:17;;;;;;;205.80;113.47;;;0.60;99.90;;;;;;4976703;28;20474;-75
2023/01/08 07:05:45;;;;;;;210.45;114.80;;;0.60;99.90;;;;;;4975128;28;20050;-76
2023/01/08 07:08:13;;;;;;;202.50;109.97;;;0.70;99.90;;;;;;4972962;28;20451;-74
2023/01/08 07:10:42;;;;;;;201.50;115.93;;;0.70;1.00;;;;;;4973671;28;20530;-75
2023/01/08 07:13:11;;;;;;;220.63;120.97;;;0.70;1.00;;;;;;4975344;28;20047;-76
2023/01/08 07:15:44;;;;;;;206.43;119.88;;;0.70;99.90;;;;;;4989169;28;20038;-75
2023/01/08 07:18:13;;;;;;;195.18;112.75;;;0.80;1.00;;;;;;4978173;28;20043;-76
2023/01/08 07:20:40;;;;;;;213.05;116.25;;;0.80;1.00;;;;;;4964418;28;20117;-74
2023/01/08 07:23:10;;;;;;;208.10;118.95;;;0.80;99.60;;;;;;4973014;28;20127;-76
2023/01/08 07:25:38;;;;;;;225.40;128.38;;;0.80;1.00;;;;;;4973796;28;20063;-77
2023/01/08 07:28:10;;;;;;;222.30;127.38;;;0.90;1.00;;;;;;4970881;28;20034;-77
2023/01/08 07:30:38;;;;;;;218.60;122.63;;;0.90;1.00;;;;;;4972477;28;20557;-76
2023/01/08 07:33:07;;;;;;;211.98;112.78;;;0.90;99.90;;;;;;4972925;28;20043;-77
2023/01/08 07:35:35;;;;;;;200.35;110.95;;;1.00;99.90;;;;;;4972683;28;20046;-77
2023/01/08 07:38:03;;;;;;;222.80;123.55;;;1.10;99.90;;;;;;4972002;28;20034;-76
2023/01/08 07:40:31;;;;;;;204.15;115.43;;;1.20;1.00;;;;;;4972082;28;20059;-77
2023/01/08 07:42:59;;;;;;;210.43;116.53;;;1.20;1.00;;;;;;4972383;28;20487;-77
2023/01/08 07:45:29;;;;;;;220.25;118.68;;;1.30;1.00;;;;;;4971993;28;20098;-77
2023/01/08 07:47:57;;;;;;;199.75;107.63;;;1.50;1.00;;;;;;4970956;28;20057;-78
2023/01/08 07:50:25;;;;;;;255.70;136.63;;;1.60;1.00;;;;;;4971340;28;20046;-78
2023/01/08 07:52:53;;;;;;;276.23;146.30;;;1.70;1.00;;;;;;4970644;28;20047;-76
2023/01/08 07:55:20;;;;;;;249.85;136.60;;;1.90;1.00;;;;;;4971032;28;20395;-77
2023/01/08 07:57:48;;;;;;;265.38;140.85;;;2.00;1.00;;;;;;4970978;28;20062;-78
2023/01/08 08:00:18;;;;;;;294.83;153.35;;;2.20;1.00;;;;;;4970480;28;20041;-77
2023/01/08 08:02:47;;;;;;;287.73;152.32;;;2.40;1.00;;;;;;4971614;28;20114;-75
2023/01/08 08:05:17;;;;;;;227.68;123.55;;;2.70;99.90;;;;;;4971886;28;20130;-73
2023/01/08 08:07:45;;;;;;;202.43;113.18;;;3.00;1.00;;;;;;4954019;28;20054;-77
2023/01/08 08:10:13;;;;;;;204.18;117.22;;;3.20;1.00;;;;;;4973575;28;20034;-73
2023/01/08 08:12:40;;;;;;;218.18;121.38;;;3.30;99.90;;;;;;4977302;28;20057;-73
2023/01/08 08:15:09;;;;;;;210.38;120.00;;;3.70;1.00;;;;;;4974737;28;20050;-74
2023/01/08 08:17:37;;;;;;;207.45;118.30;;;4.10;1.00;;;;;;4976339;28;20514;-74
2023/01/08 08:20:08;;;;;;;202.98;115.53;;;4.30;99.90;;;;;;4976052;28;20043;-75
2023/01/08 08:22:36;;;;;;;182.70;105.90;;;4.60;99.90;;;;;;4972031;28;20158;-78
2023/01/08 08:25:03;;;;;;;186.93;113.65;;;4.70;1.00;;;;;;4952530;28;20565;-76
2023/01/08 08:27:31;;;;;;;203.55;118.03;;;4.90;1.00;;;;;;4968254;28;20503;-75
2023/01/08 08:30:01;;;;;;;208.65;122.80;;;4.90;1.00;;;;;;4970668;28;20054;-78
2023/01/08 08:32:28;;;;;;;218.55;126.15;;;4.90;1.00;;;;;;4971056;28;20562;-74
2023/01/08 08:34:56;;;;;;;237.80;141.95;;;4.90;1.00;;;;;;4971424;28;20046;-77
2023/01/08 08:37:25;;;;;;;227.60;138.32;;;5.00;1.00;;;;;;4984338;28;20042;-76
2023/01/08 08:39:53;;;;;;;228.10;137.68;;;4.90;1.00;;;;;;4983796;28;20043;-73
2023/01/08 08:42:20;;;;;;;219.98;127.45;;;5.10;99.90;;;;;;4990741;28;20103;-75
2023/01/08 08:44:48;;;;;;;191.98;115.43;;;5.20;25.50;;;;;;4982951;28;20531;-78
2023/01/08 08:47:17;;;;;;;195.50;116.40;;;5.30;21.20;;;;;;4973129;28;20105;-77
2023/01/08 08:49:44;;;;;;;197.45;119.05;;;5.40;1.00;;;;;;4963411;28;20049;-74
2023/01/08 08:52:14;;;;;;;206.70;128.35;;;5.40;99.90;;;;;;4974849;28;20035;-78
2023/01/08 08:54:44;;;;;;;206.48;127.13;;;5.50;99.90;;;;;;4972427;28;20042;-76
2023/01/08 08:57:12;;;;;;;224.20;139.88;;;5.60;99.90;;;;;;4954637;28;20582;-78
2023/01/08 08:59:39;;;;;;;219.80;141.80;;;5.60;99.90;;;;;;4970103;28;20042;-78
2023/01/08 09:02:07;;;;;;;215.07;133.23;;;5.70;1.00;;;;;;4971584;28;20502;-76
2023/01/08 09:04:35;;;;;;;185.73;118.25;;;5.80;1.00;;;;;;4972773;28;20053;-76
2023/01/08 09:07:02;;;;;;;206.68;132.50;;;5.90;1.00;;;;;;4964827;28;20129;-74
2023/01/08 09:09:30;;;;;;;214.85;136.98;;;6.10;1.00;;;;;;4974266;28;20102;-79
2023/01/08 09:11:59;;;;;;;206.43;126.93;;;6.20;1.00;;;;;;4974221;28;20039;-77
2023/01/08 09:14:27;;;;;;;185.32;119.45;;;6.30;1.00;;;;;;4975678;28;20054;-76
2023/01/08 09:16:54;;;;;;;179.43;112.65;;;6.40;1.00;;;;;;4958083;28;20082;-77
2023/01/08 09:19:22;;;;;;;193.60;125.13;;;6.60;1.00;;;;;;4974910;28;20039;-76
2023/01/08 09:21:50;;;;;;;189.27;119.50;;;6.70;1.00;;;;;;4974743;28;20114;-78
2023/01/08 09:24:18;;;;;;;175.70;115.20;;;6.80;1.00;;;;;;4976624;28;20129;-79
2023/01/08 09:26:45;;;;;;;175.38;113.93;;;6.90;1.00;;;;;;4974971;28;20039;-77
2023/01/08 09:29:14;;;;;;;164.85;105.78;;;7.10;1.00;;;;;;4975230;28;20089;-78
2023/01/08 09:31:42;;;;;;;170.10;109.22;;;7.30;99.90;;;;;;4973331;28;20538;-76
2023/01/08 09:34:09;;;;;;;170.02;112.43;;;7.40;99.90;;;;;;4976894;28;20526;-79
2023/01/08 09:36:38;;;;;;;168.90;109.38;;;7.60;99.90;;;;;;4977170;28;20060;-76
2023/01/08 09:39:06;;;;;;;169.43;109.32;;;7.70;99.90;;;;;;4974035;28;20050;-75
2023/01/08 09:41:35;;;;;;;161.85;109.57;;;7.80;99.90;;;;;;4975930;28;20047;-75
2023/01/08 09:44:05;;;;;;;156.68;105.90;;;7.90;99.90;;;;;;4957642;28;20050;-76
2023/01/08 09:46:37;;;;;;;174.77;114.68;;;8.10;99.90;;;;;;4958313;28;20074;-78
2023/01/08 09:49:07;;;;;;;166.70;115.25;;;8.20;99.90;;;;;;4974751;28;20648;-75
2023/01/08 09:51:36;;;;;;;172.32;113.97;;;8.40;99.90;;;;;;4985850;28;20034;-74
2023/01/08 09:54:06;;;;;;;169.63;112.15;;;8.60;55.30;;;;;;4958675;28;20053;-73
2023/01/08 09:56:35;;;;;;;175.25;116.97;;;8.80;1.00;;;;;;4974969;28;20465;-77
2023/01/08 09:59:04;;;;;;;171.02;117.03;;;9.00;1.00;;;;;;4988673;28;20111;-75
2023/01/08 10:01:35;;;;;;;172.27;116.70;;;9.10;1.00;;;;;;4990085;28;20043;-76
2023/01/08 10:04:06;;;;;;;168.35;116.38;;;9.20;1.00;;;;;;4975120;28;20047;-74
2023/01/08 10:06:34;;;;;;;181.15;121.35;;;9.50;1.00;;;;;;4974715;28;20049;-76
2023/01/08 10:09:01;;;;;;;169.10;113.40;;;9.80;1.00;;;;;;4974229;28;20055;-77
2023/01/08 10:11:42;;;;;;;171.98;117.05;;;10.00;99.90;;;;;;4974812;28;20046;-78
2023/01/08 10:14:19;;;;;;;165.25;112.28;;;10.20;99.90;;;;;;4952847;28;20127;-78
2023/01/08 10:16:52;;;;;;;148.93;102.65;;;10.40;99.90;;;;;;4973589;28;20053;-76
2023/01/08 10:19:20;;;;;;;131.50;89.32;;;10.60;99.90;;;;;;4974112;28;20047;-74
2023/01/08 10:21:47;;;;;;;114.35;78.60;;;10.70;62.90;;;;;;4972262;28;20054;-74
2023/01/08 10:24:15;;;;;;;80.70;52.10;;;10.90;1.00;;;;;;4973002;28;20051;-75
2023/01/08 10:26:42;;;;;;;64.75;43.80;;;11.10;1.00;;;;;;4974200;28;20053;-73
2023/01/08 10:29:15;;;;;;;47.83;31.58;;;11.20;1.00;;;;;;4988404;28;20115;-75
2023/01/08 10:31:50;;;;;;;49.47;31.85;;;11.60;1.00;;;;;;4991868;28;20073;-77
2023/01/08 10:34:41;;;;;;;38.83;23.50;;;11.70;1.00;;;;;;4985633;28;20046;-74
2023/01/08 10:37:16;;;;;;;42.60;28.02;;;11.90;1.00;;;;;;4974889;28;20101;-76
2023/01/08 10:39:47;;;;;;;30.35;19.33;;;12.10;1.00;;;;;;4974228;28;20042;-77
2023/01/08 10:42:17;;;;;;;35.65;21.88;;;12.20;1.00;;;;;;4956489;28;20074;-74
2023/01/08 10:44:52;;;;;;;18.40;10.80;;;12.30;1.00;;;;;;4956982;28;20046;-73
2023/01/08 10:47:23;;;;;;;18.17;10.52;;;12.50;1.00;;;;;;4974214;28;20045;-73
2023/01/08 10:49:50;;;;;;;21.23;10.02;;;12.70;1.00;;;;;;4949163;28;20051;-74
2023/01/08 10:52:27;;;;;;;23.38;14.20;;;12.70;1.00;;;;;;4974022;28;20045;-77
2023/01/08 10:54:55;;;;;;;15.95;9.75;;;12.80;1.00;;;;;;4956273;28;20058;-74
2023/01/08 10:57:26;;;;;;;14.70;7.70;;;12.80;1.00;;;;;;4973467;28;20047;-74
2023/01/08 10:59:56;;;;;;;13.77;8.98;;;13.00;1.00;;;;;;4973649;28;20097;-75
2023/01/08 11:02:36;;;;;;;14.25;7.57;;;13.10;1.00;;;;;;4972692;28;20169;-77
2023/01/08 11:05:06;;;;;;;12.80;8.70;;;13.20;1.00;;;;;;4950978;28;20141;-76
2023/01/08 11:07:34;;;;;;;16.23;9.02;;;13.20;1.00;;;;;;4973069;28;20051;-75
2023/01/08 11:10:02;;;;;;;16.35;9.75;;;13.20;1.00;;;;;;4972858;28;20062;-74
2023/01/08 11:12:37;;;;;;;12.82;8.32;;;13.30;1.00;;;;;;4973169;28;20055;-74
2023/01/08 11:15:06;;;;;;;11.03;5.83;;;13.30;1.00;;;;;;4973773;28;20596;-77
2023/01/08 11:17:35;;;;;;;15.82;7.72;;;13.30;1.00;;;;;;4972092;28;20061;-75
2023/01/08 11:20:20;;;;;;;10.98;6.97;;;13.40;1.00;;;;;;4974764;28;20043;-77
2023/01/08 11:22:47;;;;;;;12.60;7.68;;;13.50;1.00;;;;;;4987026;28;20524;-75
2023/01/08 11:25:27;;;;;;;15.10;9.23;;;13.50;1.00;;;;;;4975876;28;20118;-75
2023/01/08 11:27:56;;;;;;;17.52;10.82;;;13.60;1.00;;;;;;4971799;28;20050;-76
2023/01/08 11:30:26;;;;;;;10.90;6.90;;;13.60;1.00;;;;;;4972245;28;20097;-78
2023/01/08 11:33:01;;;;;;;10.23;7.07;;;13.60;1.00;;;;;;4973294;28;20047;-76
2023/01/08 11:35:33;;;;;;;18.57;11.17;;;13.70;1.00;;;;;;4973021;28;20043;-78
2023/01/08 11:38:02;;;;;;;13.07;7.68;;;13.70;1.00;;;;;;4971576;28;20046;-78
2023/01/08 11:40:38;;;;;;;10.73;6.78;;;13.80;1.00;;;;;;4972208;28;20050;-76
2023/01/08 11:43:18;;;;;;;10.27;6.95;;;13.80;1.00;;;;;;4947156;28;20108;-77
2023/01/08 11:46:00;;;;;;;10.63;6.60;;;13.80;1.00;;;;;;4972067;28;20049;-78
2023/01/08 11:48:40;;;;;;;11.23;6.97;;;13.90;1.00;;;;;;4971199;28;20044;-78
2023/01/08 11:51:29;;;;;;;14.18;8.07;;;14.00;1.00;;;;;;4971942;28;20039;-76
2023/01/08 11:54:05;;;;;;;11.40;7.15;;;14.00;1.00;;;;;;4972084;28;20038;-78
2023/01/08 11:56:50;;;;;;;12.60;6.05;;;14.00;1.00;;;;;;4971250;28;20042;-79
2023/01/08 11:59:29;;;;;;;15.65;8.38;;;14.00;1.00;;;;;;4971140;28;20042;-76
2023/01/08 12:02:05;;;;;;;9.57;5.97;;;14.10;1.00;;;;;;4971691;28;20129;-74
2023/01/08 12:04:56;;;;;;;13.07;8.60;;;14.10;1.00;;;;;;4972045;28;20047;-77
2023/01/08 12:07:28;;;;;;;16.88;8.32;;;14.10;1.00;;;;;;4971794;28;20042;-78
2023/01/08 12:10:04;;;;;;;10.48;7.10;;;14.20;1.00;;;;;;4969841;28;20053;-77
2023/01/08 12:12:40;;;;;;;;;;;14.30;1.00;;;;;;4972240;28;20039;-78
2023/01/08 12:15:19;;;;;;;14.07;7.23;;;14.30;1.00;;;;;;4954169;28;19922;-78
2023/01/08 12:18:28;;;;;;;10.23;5.50;;;14.40;1.00;;;;;;4945590;28;20943;-77
2023/01/08 12:21:04;;;;;;;8.55;5.53;;;14.40;1.00;;;;;;4960817;28;20050;-79
2023/01/08 12:23:49;;;;;;;10.63;7.30;;;14.40;1.00;;;;;;4972298;28;20067;-79
2023/01/08 12:26:20;;;;;;;15.93;9.35;;;14.30;1.00;;;;;;4971222;28;20034;-76
2023/01/08 12:29:17;;;;;;;20.83;12.40;;;14.30;1.00;;;;;;4969960;28;20459;-76
2023/01/08 12:32:12;;;;;;;23.90;13.82;;;14.30;1.00;;;;;;4955007;28;20062;-75
2023/01/08 12:34:50;;;;;;;19.33;11.18;;;14.40;1.00;;;;;;4971107;28;20525;-77
2023/01/08 12:37:26;;;;;;;11.85;7.20;;;14.40;1.00;;;;;;4952394;28;20047;-78
2023/01/08 12:40:00;;;;;;;15.35;10.35;;;14.50;1.00;;;;;;4969478;28;20047;-77
2023/01/08 12:42:31;;;;;;;19.13;11.85;;;14.50;1.00;;;;;;4971110;28;20058;-76